createdAt,value
2017-05-05T00:00:55.641Z,16.58
2017-05-05T00:03:24.314Z,16.70
2017-05-05T00:05:52.248Z,19.58
2017-05-05T00:08:20.605Z,19.72
2017-05-05T00:10:49.482Z,18.10
2017-05-05T00:13:18.150Z,19.98
2017-05-05T00:15:47.109Z,20.36
2017-05-05T00:18:16.202Z,20.94
2017-05-05T00:20:45.082Z,20.80
2017-05-05T00:23:14.138Z,33.32
2017-05-05T00:25:42.809Z,33.18
2017-05-05T00:28:11.474Z,29.78
2017-05-05T00:30:39.956Z,31.78
2017-05-05T00:33:08.260Z,32.48
2017-05-05T00:35:37.307Z,31.32
2017-05-05T00:38:05.657Z,32.54
2017-05-05T00:40:33.962Z,32.30
2017-05-05T00:43:01.907Z,33.00
2017-05-05T00:45:30.254Z,31.80
2017-05-05T00:47:58.555Z,30.20
2017-05-05T00:50:26.489Z,31.28
2017-05-05T00:52:54.474Z,32.76
2017-05-05T00:55:23.137Z,31.92
2017-05-05T00:57:52.032Z,33.60
2017-05-05T01:00:20.730Z,35.10
2017-05-05T01:02:49.610Z,33.64
2017-05-05T01:05:18.282Z,32.90
2017-05-05T01:07:47.366Z,29.96
2017-05-05T01:10:16.250Z,26.84
2017-05-05T01:12:44.546Z,28.54
2017-05-05T01:15:13.261Z,28.70
2017-05-05T01:17:41.187Z,30.40
2017-05-05T01:20:09.125Z,27.98
2017-05-05T01:22:37.850Z,28.04
2017-05-05T01:25:06.741Z,27.18
2017-05-05T01:27:35.634Z,27.30
2017-05-05T01:30:04.574Z,24.88
2017-05-05T01:32:32.503Z,24.98
2017-05-05T01:35:00.830Z,23.68
2017-05-05T01:37:29.441Z,23.10
2017-05-05T01:39:58.107Z,23.72
2017-05-05T01:42:26.034Z,21.88
2017-05-05T01:44:54.383Z,22.74
2017-05-05T01:47:22.314Z,23.56
2017-05-05T01:49:50.253Z,21.58
2017-05-05T01:52:18.598Z,22.22
2017-05-05T01:54:46.523Z,23.12
2017-05-05T01:57:15.190Z,23.86
2017-05-05T01:59:43.162Z,25.58
2017-05-05T02:02:11.825Z,26.42
2017-05-05T02:04:40.702Z,22.64
2017-05-05T02:07:09.791Z,23.62
2017-05-05T02:09:38.102Z,24.84
2017-05-05T02:12:06.034Z,23.84
2017-05-05T02:14:34.978Z,24.00
2017-05-05T02:17:03.861Z,22.12
2017-05-05T02:19:32.915Z,21.52
2017-05-05T02:22:01.289Z,20.80
2017-05-05T02:24:29.958Z,19.32
2017-05-05T02:26:58.250Z,20.46
2017-05-05T02:29:26.222Z,22.02
2017-05-05T02:31:55.262Z,21.00
2017-05-05T02:34:24.146Z,22.42
2017-05-05T02:36:52.502Z,23.38
2017-05-05T02:39:20.808Z,22.24
2017-05-05T02:41:48.738Z,20.36
2017-05-05T02:44:18.131Z,20.88
2017-05-05T02:46:47.014Z,22.30
2017-05-05T02:49:15.894Z,21.10
2017-05-05T02:51:43.870Z,22.40
2017-05-05T02:54:12.170Z,24.86
2017-05-05T02:56:41.046Z,22.84
2017-05-05T02:59:09.767Z,22.04
2017-05-05T03:01:37.718Z,24.90
2017-05-05T03:04:05.656Z,23.10
2017-05-05T03:06:34.652Z,24.84
2017-05-05T03:09:03.546Z,23.64
2017-05-05T03:11:32.446Z,23.74
2017-05-05T03:14:01.170Z,26.10
2017-05-05T03:16:29.478Z,26.12
2017-05-05T03:18:58.518Z,26.18
2017-05-05T03:21:27.602Z,24.46
2017-05-05T03:23:55.899Z,24.08
2017-05-05T03:26:24.939Z,26.34
2017-05-05T03:28:53.419Z,24.00
2017-05-05T03:31:21.726Z,23.02
2017-05-05T03:33:49.656Z,25.82
2017-05-05T03:36:18.002Z,22.48
2017-05-05T03:38:46.298Z,23.84
2017-05-05T03:41:14.598Z,22.84
2017-05-05T03:43:43.718Z,25.08
2017-05-05T03:46:11.642Z,26.00
2017-05-05T03:48:39.939Z,23.74
2017-05-05T03:51:08.218Z,26.18
2017-05-05T03:53:36.898Z,26.04
2017-05-05T03:56:05.795Z,25.14
2017-05-05T03:58:34.739Z,24.78
2017-05-05T04:01:03.046Z,23.18
2017-05-05T04:03:31.365Z,26.52
2017-05-05T04:05:59.734Z,27.54
2017-05-05T04:08:28.027Z,27.26
2017-05-05T04:10:55.954Z,26.16
2017-05-05T04:13:24.878Z,27.88
2017-05-05T04:15:53.545Z,28.48
2017-05-05T04:18:21.850Z,28.20
2017-05-05T04:20:50.211Z,29.16
2017-05-05T04:23:18.510Z,26.44
2017-05-05T04:25:47.546Z,28.20
2017-05-05T04:28:16.263Z,28.70
2017-05-05T04:30:45.149Z,26.80
2017-05-05T04:33:13.817Z,27.74
2017-05-05T04:35:41.794Z,26.12
2017-05-05T04:38:10.090Z,25.74
2017-05-05T04:40:38.758Z,26.64
2017-05-05T04:43:07.153Z,25.26
2017-05-05T04:45:36.092Z,26.12
2017-05-05T04:48:04.792Z,23.30
2017-05-05T04:50:33.479Z,26.10
2017-05-05T04:53:02.378Z,26.24
2017-05-05T04:55:30.682Z,25.40
2017-05-05T04:57:59.617Z,28.18
2017-05-05T05:00:27.913Z,27.90
2017-05-05T05:02:56.209Z,26.10
2017-05-05T05:05:25.311Z,28.40
2017-05-05T05:07:54.194Z,27.04
2017-05-05T05:10:23.233Z,29.72
2017-05-05T05:12:51.962Z,29.24
2017-05-05T05:15:19.899Z,30.06
2017-05-05T05:17:47.826Z,27.14
2017-05-05T05:20:16.174Z,27.44
2017-05-05T05:22:44.098Z,26.78
2017-05-05T05:25:13.142Z,26.98
2017-05-05T05:27:41.489Z,26.60
2017-05-05T05:30:10.526Z,27.34
2017-05-05T05:32:38.823Z,28.84
2017-05-05T05:35:07.950Z,25.80
2017-05-05T05:37:36.835Z,25.36
2017-05-05T05:40:05.514Z,27.70
2017-05-05T05:42:33.867Z,27.20
2017-05-05T05:45:02.166Z,27.10
2017-05-05T05:47:30.461Z,25.46
2017-05-05T05:49:59.502Z,26.38
2017-05-05T05:52:27.430Z,23.28
2017-05-05T05:54:56.094Z,21.66
2017-05-05T05:57:24.443Z,22.14
2017-05-05T05:59:52.746Z,23.00
2017-05-05T06:02:21.626Z,23.24
2017-05-05T06:04:50.308Z,23.20
2017-05-05T06:07:18.236Z,22.70
2017-05-05T06:09:46.166Z,22.06
2017-05-05T06:12:15.251Z,21.62
2017-05-05T06:14:43.173Z,21.96
2017-05-05T06:17:11.097Z,22.26
2017-05-05T06:19:40.025Z,22.32
2017-05-05T06:22:08.902Z,22.42
2017-05-05T06:24:37.781Z,20.82
2017-05-05T06:27:06.394Z,20.04
2017-05-05T06:29:35.078Z,21.66
2017-05-05T06:32:03.026Z,20.86
2017-05-05T06:34:32.343Z,20.64
2017-05-05T06:37:00.646Z,19.90
2017-05-05T06:39:29.519Z,19.58
2017-05-05T06:41:58.235Z,19.14
2017-05-05T06:44:26.610Z,18.58
2017-05-05T06:46:54.911Z,19.78
2017-05-05T06:49:23.606Z,19.00
2017-05-05T06:51:52.294Z,17.16
2017-05-05T06:54:20.607Z,16.26
2017-05-05T06:56:48.959Z,17.26
2017-05-05T06:59:17.254Z,15.78
2017-05-05T07:01:45.179Z,17.10
2017-05-05T07:04:13.922Z,18.62
2017-05-05T07:06:42.589Z,20.42
2017-05-05T07:09:10.887Z,19.06
2017-05-05T07:11:40.018Z,19.82
2017-05-05T07:14:09.054Z,19.86
2017-05-05T07:16:37.745Z,18.14
2017-05-05T07:19:06.243Z,18.58
2017-05-05T07:21:35.302Z,20.82
2017-05-05T07:24:03.267Z,18.80
2017-05-05T07:26:32.379Z,19.50
2017-05-05T07:29:00.682Z,20.34
2017-05-05T07:31:28.978Z,18.08
2017-05-05T07:33:57.910Z,19.46
2017-05-05T07:36:26.210Z,19.42
2017-05-05T07:38:54.506Z,22.08
2017-05-05T07:41:22.866Z,21.44
2017-05-05T07:43:51.171Z,21.56
2017-05-05T07:46:20.077Z,20.48
2017-05-05T07:48:48.434Z,20.56
2017-05-05T07:51:17.309Z,21.14
2017-05-05T07:53:46.185Z,21.04
2017-05-05T07:56:14.914Z,21.72
2017-05-05T07:58:43.214Z,18.58
2017-05-05T08:01:11.143Z,21.90
2017-05-05T08:03:39.822Z,19.32
2017-05-05T08:06:08.130Z,20.62
2017-05-05T08:08:36.434Z,18.78
2017-05-05T08:11:04.818Z,18.30
2017-05-05T08:13:33.880Z,17.92
2017-05-05T08:16:02.198Z,16.24
2017-05-05T08:18:30.550Z,16.12
2017-05-05T08:20:58.474Z,17.52
2017-05-05T08:23:26.770Z,16.88
2017-05-05T08:25:55.119Z,17.10
2017-05-05T08:28:23.418Z,16.58
2017-05-05T08:30:51.356Z,16.66
2017-05-05T08:33:19.726Z,16.78
2017-05-05T08:35:48.786Z,15.40
2017-05-05T08:38:17.459Z,15.34
2017-05-05T08:40:45.807Z,14.74
2017-05-05T08:43:14.695Z,15.70
2017-05-05T08:45:42.998Z,16.96
2017-05-05T08:48:11.346Z,15.66
2017-05-05T08:50:39.279Z,15.50
2017-05-05T08:53:07.591Z,14.86
2017-05-05T08:55:35.947Z,13.84
2017-05-05T08:58:04.259Z,15.74
2017-05-05T09:00:32.211Z,15.78
2017-05-05T09:03:00.562Z,14.84
2017-05-05T09:05:29.442Z,14.98
2017-05-05T09:07:58.110Z,12.82
2017-05-05T09:10:27.578Z,12.10
2017-05-05T09:12:55.501Z,12.36
2017-05-05T09:15:24.541Z,13.06
2017-05-05T09:17:52.539Z,12.76
2017-05-05T09:20:20.866Z,12.42
2017-05-05T09:22:48.798Z,15.18
2017-05-05T09:25:17.915Z,14.04
2017-05-05T09:27:46.958Z,14.14
2017-05-05T09:30:15.994Z,12.06
2017-05-05T09:32:44.933Z,15.86
2017-05-05T09:35:13.596Z,15.74
2017-05-05T09:37:41.890Z,15.40
2017-05-05T09:40:10.071Z,14.60
2017-05-05T09:42:38.378Z,15.70
2017-05-05T09:45:06.680Z,16.86
2017-05-05T09:47:35.891Z,15.32
2017-05-05T09:50:04.207Z,15.16
2017-05-05T09:52:32.163Z,16.46
2017-05-05T09:55:00.471Z,16.10
2017-05-05T09:57:28.394Z,16.90
2017-05-05T09:59:57.063Z,17.18
2017-05-05T10:02:25.405Z,17.06
2017-05-05T10:04:54.286Z,17.54
2017-05-05T10:07:23.178Z,18.24
2017-05-05T10:09:52.122Z,16.72
2017-05-05T10:12:20.848Z,15.72
2017-05-05T10:14:49.729Z,18.02
2017-05-05T10:17:18.073Z,16.58
2017-05-05T10:19:46.366Z,19.02
2017-05-05T10:22:15.249Z,17.46
2017-05-05T10:24:44.334Z,18.08
2017-05-05T10:27:12.262Z,20.48
2017-05-05T10:29:40.562Z,21.34
2017-05-05T10:32:08.906Z,22.92
2017-05-05T10:34:37.951Z,23.36
2017-05-05T10:37:06.851Z,23.26
2017-05-05T10:39:35.807Z,25.16
2017-05-05T10:42:04.486Z,26.98
2017-05-05T10:44:32.426Z,25.12
2017-05-05T10:47:00.774Z,23.20
2017-05-05T10:49:28.702Z,24.16
2017-05-05T10:51:56.629Z,24.86
2017-05-05T10:54:25.714Z,29.12
2017-05-05T10:56:54.593Z,27.74
2017-05-05T10:59:23.272Z,31.52
2017-05-05T11:01:51.266Z,32.20
2017-05-05T11:04:19.948Z,29.12
2017-05-05T11:06:48.250Z,29.88
2017-05-05T11:09:16.226Z,30.68
2017-05-05T11:11:44.522Z,27.06
2017-05-05T11:14:12.822Z,25.42
2017-05-05T11:16:41.742Z,25.90
2017-05-05T11:19:10.034Z,23.42
2017-05-05T11:21:38.346Z,26.02
2017-05-05T11:24:06.334Z,23.20
2017-05-05T11:26:35.030Z,29.26
2017-05-05T11:29:03.333Z,32.48
2017-05-05T11:31:31.694Z,31.10
2017-05-05T11:34:00.593Z,29.98
2017-05-05T11:36:28.888Z,31.96
2017-05-05T11:38:57.247Z,30.42
2017-05-05T11:41:25.911Z,36.76
2017-05-05T11:43:54.206Z,33.08
2017-05-05T11:46:23.149Z,32.26
2017-05-05T11:48:52.198Z,33.48
2017-05-05T11:51:20.133Z,26.94
2017-05-05T11:53:48.478Z,26.58
2017-05-05T11:56:17.510Z,28.34
2017-05-05T11:58:45.803Z,28.40
2017-05-05T12:01:14.147Z,26.58
2017-05-05T12:03:43.028Z,28.62
2017-05-05T12:06:11.906Z,25.22
2017-05-05T12:08:40.250Z,26.46
2017-05-05T12:11:08.914Z,26.08
2017-05-05T12:13:37.215Z,25.22
2017-05-05T12:16:06.155Z,25.80
2017-05-05T12:18:34.831Z,26.20
2017-05-05T12:21:03.516Z,24.32
2017-05-05T12:23:31.883Z,27.12
2017-05-05T12:26:00.178Z,27.66
2017-05-05T12:28:29.053Z,27.92
2017-05-05T12:30:57.807Z,25.62
2017-05-05T12:33:26.101Z,26.04
2017-05-05T12:35:54.394Z,24.72
2017-05-05T12:38:22.891Z,23.64
2017-05-05T12:40:50.826Z,21.16
2017-05-05T12:43:19.709Z,22.76
2017-05-05T12:45:48.070Z,22.02
2017-05-05T12:48:16.734Z,22.28
2017-05-05T12:50:45.026Z,25.00
2017-05-05T12:53:13.954Z,26.20
2017-05-05T12:55:42.250Z,25.38
2017-05-05T12:58:10.543Z,26.38
2017-05-05T13:00:38.878Z,25.84
2017-05-05T13:03:06.815Z,26.98
2017-05-05T13:05:35.126Z,25.54
2017-05-05T13:08:03.510Z,25.54
2017-05-05T13:10:31.448Z,23.24
2017-05-05T13:12:59.746Z,22.22
2017-05-05T13:15:28.105Z,22.68
2017-05-05T13:17:56.406Z,23.84
2017-05-05T13:20:25.437Z,27.14
2017-05-05T13:22:53.782Z,31.26
2017-05-05T13:25:21.710Z,30.40
2017-05-05T13:27:50.598Z,30.70
2017-05-05T13:30:19.530Z,24.86
2017-05-05T13:32:47.829Z,29.28
2017-05-05T13:35:16.493Z,28.74
2017-05-05T13:37:45.422Z,25.52
2017-05-05T13:40:13.715Z,25.24
2017-05-05T13:42:42.379Z,25.84
2017-05-05T13:45:10.858Z,28.72
2017-05-05T13:47:39.154Z,27.92
2017-05-05T13:50:07.464Z,27.62
2017-05-05T13:52:35.825Z,26.40
2017-05-05T13:55:03.802Z,29.22
2017-05-05T13:57:32.762Z,28.80
2017-05-05T14:00:01.338Z,28.86
2017-05-05T14:02:29.275Z,24.94
2017-05-05T14:04:57.565Z,26.38
2017-05-05T14:07:26.494Z,25.62
2017-05-05T14:09:55.543Z,24.48
2017-05-05T14:12:23.843Z,24.16
2017-05-05T14:14:51.835Z,23.58
2017-05-05T14:17:20.884Z,22.18
2017-05-05T14:19:49.182Z,23.90
2017-05-05T14:22:18.270Z,26.16
2017-05-05T14:24:47.302Z,24.38
2017-05-05T14:27:15.599Z,22.22
2017-05-05T14:29:44.534Z,25.30
2017-05-05T14:32:13.200Z,22.66
2017-05-05T14:34:41.498Z,19.94
2017-05-05T14:37:10.354Z,22.06
2017-05-05T14:39:39.017Z,21.52
2017-05-05T14:42:07.323Z,23.70
2017-05-05T14:44:35.309Z,20.56
2017-05-05T14:47:03.932Z,18.80
2017-05-05T14:49:31.871Z,21.38
2017-05-05T14:52:00.218Z,21.40
2017-05-05T14:54:28.510Z,18.48
2017-05-05T14:56:57.393Z,18.60
2017-05-05T14:59:26.766Z,17.80
2017-05-05T15:01:55.084Z,17.26
2017-05-05T15:04:23.374Z,19.88
2017-05-05T15:06:52.298Z,16.48
2017-05-05T15:09:20.597Z,24.74
2017-05-05T15:11:48.891Z,21.04
2017-05-05T15:14:17.238Z,19.58
2017-05-05T15:16:45.530Z,17.28
2017-05-05T15:19:13.459Z,17.68
2017-05-05T15:21:44.574Z,17.54
2017-05-05T15:24:12.874Z,16.98
2017-05-05T15:26:41.757Z,21.04
2017-05-05T15:29:10.697Z,20.92
2017-05-05T15:31:39.392Z,18.46
2017-05-05T15:34:08.299Z,17.72
2017-05-05T15:36:37.246Z,18.20
2017-05-05T15:39:06.294Z,17.74
2017-05-05T15:41:34.615Z,16.92
2017-05-05T15:44:03.560Z,19.70
2017-05-05T15:46:32.256Z,18.14
2017-05-05T15:49:00.926Z,18.30
2017-05-05T15:51:29.266Z,21.88
2017-05-05T15:53:58.174Z,18.88
2017-05-05T15:56:27.218Z,20.30
2017-05-05T15:58:57.088Z,18.04
2017-05-05T16:01:25.387Z,20.20
2017-05-05T16:03:54.271Z,21.08
2017-05-05T16:06:23.298Z,19.42
2017-05-05T16:08:52.187Z,18.82
2017-05-05T16:11:21.074Z,20.66
2017-05-05T16:13:49.425Z,21.78
2017-05-05T16:16:17.373Z,21.42
2017-05-05T16:18:46.058Z,22.90
2017-05-05T16:21:14.038Z,21.16
2017-05-05T16:23:42.918Z,23.54
2017-05-05T16:26:11.951Z,23.38
2017-05-05T16:28:39.949Z,21.90
2017-05-05T16:31:09.000Z,23.40
2017-05-05T16:33:37.909Z,22.44
2017-05-05T16:36:06.643Z,22.10
2017-05-05T16:38:34.946Z,22.32
2017-05-05T16:41:03.268Z,21.52
2017-05-05T16:43:31.617Z,22.12
2017-05-05T16:46:00.665Z,22.64
2017-05-05T16:48:28.959Z,23.28
2017-05-05T16:50:57.882Z,25.98
2017-05-05T16:53:26.914Z,24.94
2017-05-05T16:55:55.582Z,24.98
2017-05-05T16:58:24.511Z,22.62
2017-05-05T17:00:53.179Z,22.62
2017-05-05T17:03:22.214Z,24.44
2017-05-05T17:05:50.558Z,29.08
2017-05-05T17:08:18.861Z,27.06
2017-05-05T17:10:47.734Z,25.20
2017-05-05T17:13:16.446Z,27.72
2017-05-05T17:15:45.118Z,25.84
2017-05-05T17:18:13.419Z,26.84
2017-05-05T17:20:42.613Z,26.86
2017-05-05T17:23:11.282Z,26.90
2017-05-05T17:25:39.589Z,26.50
2017-05-05T17:28:07.588Z,26.72
2017-05-05T17:30:35.980Z,28.42
2017-05-05T17:33:04.680Z,28.48
2017-05-05T17:35:33.054Z,28.62
2017-05-05T17:38:01.359Z,25.42
2017-05-05T17:40:29.654Z,26.72
2017-05-05T17:42:58.002Z,27.38
2017-05-05T17:45:26.885Z,27.38
2017-05-05T17:47:55.560Z,28.40
2017-05-05T17:50:23.540Z,28.00
2017-05-05T17:52:51.838Z,26.18
2017-05-05T17:55:20.506Z,27.18
2017-05-05T17:57:49.218Z,25.56
2017-05-05T18:00:18.098Z,24.06
2017-05-05T18:02:46.022Z,27.16
2017-05-05T18:05:14.366Z,23.34
2017-05-05T18:07:43.454Z,23.90
2017-05-05T18:10:11.771Z,24.74
2017-05-05T18:12:39.771Z,26.48
2017-05-05T18:15:08.814Z,23.60
2017-05-05T18:17:36.768Z,24.74
2017-05-05T18:20:05.140Z,24.54
2017-05-05T18:22:33.095Z,25.04
2017-05-05T18:25:01.018Z,24.60
2017-05-05T18:27:29.367Z,23.22
2017-05-05T18:29:57.290Z,24.60
2017-05-05T18:32:25.586Z,23.06
2017-05-05T18:34:53.561Z,23.42
2017-05-05T18:37:22.598Z,22.04
2017-05-05T18:39:50.897Z,21.94
2017-05-05T18:42:19.242Z,20.82
2017-05-05T18:44:48.121Z,19.04
2017-05-05T18:47:16.050Z,19.16
2017-05-05T18:49:44.658Z,18.08
2017-05-05T18:52:13.331Z,18.48
2017-05-05T18:54:41.633Z,16.88
2017-05-05T18:57:10.763Z,15.80
2017-05-05T18:59:38.711Z,15.14
2017-05-05T19:02:06.659Z,16.02
2017-05-05T19:04:35.026Z,15.84
2017-05-05T19:07:02.974Z,16.34
2017-05-05T19:09:31.885Z,16.14
2017-05-05T19:12:00.607Z,15.34
2017-05-05T19:14:29.650Z,15.74
2017-05-05T19:16:57.947Z,16.28
2017-05-05T19:19:25.922Z,15.38
2017-05-05T19:21:54.962Z,17.90
2017-05-05T19:24:23.844Z,17.84
2017-05-05T19:26:51.854Z,15.58
2017-05-05T19:29:20.150Z,16.84
2017-05-05T19:31:48.075Z,17.54
2017-05-05T19:34:16.418Z,17.68
2017-05-05T19:36:45.301Z,18.36
2017-05-05T19:39:14.183Z,17.70
2017-05-05T19:41:42.519Z,19.34
2017-05-05T19:44:11.553Z,20.06
2017-05-05T19:46:39.850Z,20.48
2017-05-05T19:49:08.934Z,21.40
2017-05-05T19:51:37.981Z,21.62
2017-05-05T19:54:06.286Z,21.36
2017-05-05T19:56:35.225Z,23.60
2017-05-05T19:59:03.542Z,23.74
2017-05-05T20:01:31.870Z,24.34
2017-05-05T20:04:00.959Z,25.68
2017-05-05T20:06:29.838Z,27.26
2017-05-05T20:08:57.762Z,24.88
2017-05-05T20:11:26.107Z,22.82
2017-05-05T20:13:55.163Z,22.32
2017-05-05T20:16:23.463Z,24.50
2017-05-05T20:18:52.186Z,25.72
2017-05-05T20:21:20.486Z,22.76
2017-05-05T20:23:49.374Z,25.32
2017-05-05T20:26:18.302Z,22.24
2017-05-05T20:28:46.598Z,25.68
2017-05-05T20:31:14.895Z,25.42
2017-05-05T20:33:42.870Z,24.12
2017-05-05T20:36:10.798Z,26.86
2017-05-05T20:38:39.461Z,24.60
2017-05-05T20:41:07.818Z,23.86
2017-05-05T20:43:35.763Z,23.60
2017-05-05T20:46:04.091Z,23.58
2017-05-05T20:48:32.466Z,25.16
2017-05-05T20:51:01.535Z,22.90
2017-05-05T20:53:29.839Z,22.68
2017-05-05T20:55:57.814Z,24.06
2017-05-05T20:58:26.696Z,24.46
2017-05-05T21:00:55.577Z,24.30
2017-05-05T21:03:24.290Z,23.10
2017-05-05T21:05:52.222Z,23.84
2017-05-05T21:08:20.528Z,25.00
2017-05-05T21:10:48.510Z,22.56
2017-05-05T21:13:17.550Z,21.74
2017-05-05T21:15:45.859Z,24.60
2017-05-05T21:18:14.814Z,25.20
2017-05-05T21:20:43.482Z,24.62
2017-05-05T21:23:11.786Z,26.12
2017-05-05T21:25:39.999Z,24.58
2017-05-05T21:28:07.943Z,23.80
2017-05-05T21:30:36.260Z,25.04
2017-05-05T21:33:04.626Z,23.46
2017-05-05T21:35:32.562Z,22.66
2017-05-05T21:38:00.862Z,24.40
2017-05-05T21:40:29.242Z,24.48
2017-05-05T21:42:57.911Z,24.72
2017-05-05T21:45:26.206Z,25.24
2017-05-05T21:47:54.195Z,25.12
2017-05-05T21:50:22.499Z,25.08
2017-05-05T21:52:50.428Z,26.72
2017-05-05T21:55:19.146Z,25.10
2017-05-05T21:57:48.022Z,25.96
2017-05-05T22:00:17.061Z,27.64
2017-05-05T22:02:45.406Z,28.24
2017-05-05T22:05:13.330Z,28.06
2017-05-05T22:07:41.627Z,27.70
2017-05-05T22:10:09.974Z,26.66
2017-05-05T22:12:38.274Z,27.56
2017-05-05T22:15:07.167Z,26.80
2017-05-05T22:17:36.111Z,26.56
2017-05-05T22:20:04.998Z,29.38
2017-05-05T22:22:33.666Z,27.42
2017-05-05T22:25:02.021Z,28.14
2017-05-05T22:27:30.689Z,27.08
2017-05-05T22:29:58.991Z,27.96
2017-05-05T22:32:27.941Z,28.78
2017-05-05T22:34:56.256Z,29.32
2017-05-05T22:37:24.573Z,28.68
2017-05-05T22:39:52.949Z,28.10
2017-05-05T22:42:20.908Z,28.24
2017-05-05T22:44:49.970Z,28.30
2017-05-05T22:47:17.982Z,28.68
2017-05-05T22:49:46.305Z,27.42
2017-05-05T22:52:15.208Z,28.12
2017-05-05T22:54:43.200Z,28.64
2017-05-05T22:57:11.148Z,28.28
2017-05-05T22:59:39.469Z,30.44
2017-05-05T23:02:07.474Z,28.94
2017-05-05T23:04:35.801Z,29.02
2017-05-05T23:07:03.781Z,29.04
2017-05-05T23:09:32.166Z,31.08
2017-05-05T23:12:00.117Z,30.50
2017-05-05T23:14:28.806Z,32.76
2017-05-05T23:16:57.318Z,29.96
2017-05-05T23:19:25.634Z,30.56
2017-05-05T23:21:54.534Z,30.28
2017-05-05T23:24:23.201Z,31.04
2017-05-05T23:26:51.156Z,30.50
2017-05-05T23:29:19.485Z,30.02
2017-05-05T23:31:47.873Z,30.60
2017-05-05T23:34:15.817Z,27.40
2017-05-05T23:36:44.724Z,28.44
2017-05-05T23:39:13.461Z,32.08
2017-05-05T23:41:41.407Z,33.30
2017-05-05T23:44:09.358Z,30.58
2017-05-05T23:46:37.726Z,31.12
2017-05-05T23:49:05.685Z,33.10
2017-05-05T23:51:34.009Z,30.04
2017-05-05T23:54:02.049Z,29.98
2017-05-05T23:56:30.001Z,31.04
2017-05-05T23:58:58.514Z,30.88
